sensor_id;sensor_type;location;lat;lon;timestamp;pressure;altitude;pressure_sealevel;temperature
27986;BMP280;15453;53.692;10.168;2022-12-07T00:01:10;100840.13;;;7.15
27986;BMP280;15453;53.692;10.168;2022-12-07T00:03:37;100828.84;;;7.12
27986;BMP280;15453;53.692;10.168;2022-12-07T00:06:03;100828.84;;;7.12
27986;BMP280;15453;53.692;10.168;2022-12-07T00:08:30;100826.59;;;7.09
27986;BMP280;15453;53.692;10.168;2022-12-07T00:11:00;100826.59;;;7.09
27986;BMP280;15453;53.692;10.168;2022-12-07T00:13:26;100820.94;;;7.04
27986;BMP280;15453;53.692;10.168;2022-12-07T00:15:51;100814.22;;;7.06
27986;BMP280;15453;53.692;10.168;2022-12-07T00:18:16;100814.22;;;7.06
27986;BMP280;15453;53.692;10.168;2022-12-07T00:20:41;100807.75;;;7.07
27986;BMP280;15453;53.692;10.168;2022-12-07T00:23:07;100807.75;;;7.07
27986;BMP280;15453;53.692;10.168;2022-12-07T00:25:32;100801.81;;;7.10
27986;BMP280;15453;53.692;10.168;2022-12-07T00:27:57;100801.81;;;7.10
27986;BMP280;15453;53.692;10.168;2022-12-07T00:30:23;100804.09;;;7.13
27986;BMP280;15453;53.692;10.168;2022-12-07T00:32:49;100795.72;;;7.15
27986;BMP280;15453;53.692;10.168;2022-12-07T00:35:15;100795.72;;;7.15
27986;BMP280;15453;53.692;10.168;2022-12-07T00:37:40;100790.63;;;7.18
27986;BMP280;15453;53.692;10.168;2022-12-07T00:40:06;100800.25;;;7.21
27986;BMP280;15453;53.692;10.168;2022-12-07T00:42:31;100800.25;;;7.21
27986;BMP280;15453;53.692;10.168;2022-12-07T00:44:57;100800.03;;;7.22
27986;BMP280;15453;53.692;10.168;2022-12-07T00:47:22;100800.03;;;7.22
27986;BMP280;15453;53.692;10.168;2022-12-07T00:49:47;100782.38;;;7.25
27986;BMP280;15453;53.692;10.168;2022-12-07T00:52:12;100780.28;;;7.27
27986;BMP280;15453;53.692;10.168;2022-12-07T00:54:37;100768.53;;;7.26
27986;BMP280;15453;53.692;10.168;2022-12-07T00:57:03;100771.03;;;7.28
27986;BMP280;15453;53.692;10.168;2022-12-07T00:59:28;100771.03;;;7.28
27986;BMP280;15453;53.692;10.168;2022-12-07T01:01:53;100765.81;;;7.26
27986;BMP280;15453;53.692;10.168;2022-12-07T01:04:18;100761.59;;;7.30
27986;BMP280;15453;53.692;10.168;2022-12-07T01:06:44;100752.34;;;7.31
27986;BMP280;15453;53.692;10.168;2022-12-07T01:09:09;100752.34;;;7.31
27986;BMP280;15453;53.692;10.168;2022-12-07T01:11:34;100755.06;;;7.31
27986;BMP280;15453;53.692;10.168;2022-12-07T01:14:00;100752.97;;;7.33
27986;BMP280;15453;53.692;10.168;2022-12-07T01:16:28;100752.97;;;7.33
27986;BMP280;15453;53.692;10.168;2022-12-07T01:18:55;100743.38;;;7.31
27986;BMP280;15453;53.692;10.168;2022-12-07T01:21:26;100740.78;;;7.36
27986;BMP280;15453;53.692;10.168;2022-12-07T01:23:52;100740.78;;;7.36
27986;BMP280;15453;53.692;10.168;2022-12-07T01:26:20;100732.81;;;7.34
27986;BMP280;15453;53.692;10.168;2022-12-07T01:28:46;100738.28;;;7.34
27986;BMP280;15453;53.692;10.168;2022-12-07T01:31:14;100731.75;;;7.35
27986;BMP280;15453;53.692;10.168;2022-12-07T01:33:44;100733.66;;;7.35
27986;BMP280;15453;53.692;10.168;2022-12-07T01:36:15;100737.59;;;7.39
27986;BMP280;15453;53.692;10.168;2022-12-07T01:38:41;100729.88;;;7.36
27986;BMP280;15453;53.692;10.168;2022-12-07T01:41:07;100730.72;;;7.36
27986;BMP280;15453;53.692;10.168;2022-12-07T01:43:33;100730.72;;;7.36
27986;BMP280;15453;53.692;10.168;2022-12-07T01:45:59;100735.31;;;7.36
27986;BMP280;15453;53.692;10.168;2022-12-07T01:48:32;100727.78;;;7.38
27986;BMP280;15453;53.692;10.168;2022-12-07T01:51:02;100733.06;;;7.33
27986;BMP280;15453;53.692;10.168;2022-12-07T01:53:29;100737.47;;;7.34
27986;BMP280;15453;53.692;10.168;2022-12-07T01:55:56;100737.47;;;7.34
27986;BMP280;15453;53.692;10.168;2022-12-07T01:58:22;100738.13;;;7.29
27986;BMP280;15453;53.692;10.168;2022-12-07T02:00:48;100730.19;;;7.28
27986;BMP280;15453;53.692;10.168;2022-12-07T02:03:34;100734.56;;;7.29
27986;BMP280;15453;53.692;10.168;2022-12-07T03:06:36;100716.97;;;6.95
27986;BMP280;15453;53.692;10.168;2022-12-07T03:09:14;100722.41;;;6.95
27986;BMP280;15453;53.692;10.168;2022-12-07T03:11:48;100724.75;;;6.92
27986;BMP280;15453;53.692;10.168;2022-12-07T03:14:25;100728.50;;;6.91
27986;BMP280;15453;53.692;10.168;2022-12-07T03:17:01;100724.34;;;6.88
27986;BMP280;15453;53.692;10.168;2022-12-07T03:19:28;100729.22;;;6.86
27986;BMP280;15453;53.692;10.168;2022-12-07T03:22:04;100731.94;;;6.86
27986;BMP280;15453;53.692;10.168;2022-12-07T03:24:38;100726.09;;;6.83
27986;BMP280;15453;53.692;10.168;2022-12-07T03:27:09;100727.38;;;6.80
27986;BMP280;15453;53.692;10.168;2022-12-07T03:29:42;100720.28;;;6.79
27986;BMP280;15453;53.692;10.168;2022-12-07T03:32:15;100722.41;;;6.77
27986;BMP280;15453;53.692;10.168;2022-12-07T03:34:53;100720.94;;;6.75
27986;BMP280;15453;53.692;10.168;2022-12-07T03:37:41;100725.78;;;6.73
27986;BMP280;15453;53.692;10.168;2022-12-07T03:40:25;100741.75;;;6.69
27986;BMP280;15453;53.692;10.168;2022-12-07T03:42:54;100741.75;;;6.69
27986;BMP280;15453;53.692;10.168;2022-12-07T03:45:23;100740.53;;;6.65
27986;BMP280;15453;53.692;10.168;2022-12-07T03:48:10;100740.53;;;6.65
27986;BMP280;15453;53.692;10.168;2022-12-07T03:50:55;100731.78;;;6.57
27986;BMP280;15453;53.692;10.168;2022-12-07T03:53:44;100736.66;;;6.55
27986;BMP280;15453;53.692;10.168;2022-12-07T03:56:11;100734.16;;;6.53
27986;BMP280;15453;53.692;10.168;2022-12-07T03:58:38;100743.38;;;6.52
27986;BMP280;15453;53.692;10.168;2022-12-07T04:01:03;100746.53;;;6.49
27986;BMP280;15453;53.692;10.168;2022-12-07T04:03:29;100729.78;;;6.46
27986;BMP280;15453;53.692;10.168;2022-12-07T04:05:54;100739.22;;;6.43
27986;BMP280;15453;53.692;10.168;2022-12-07T04:08:20;100739.69;;;6.40
27986;BMP280;15453;53.692;10.168;2022-12-07T04:10:45;100744.28;;;6.40
27986;BMP280;15453;53.692;10.168;2022-12-07T04:13:10;100740.97;;;6.38
27986;BMP280;15453;53.692;10.168;2022-12-07T04:15:35;100741.59;;;6.40
27986;BMP280;15453;53.692;10.168;2022-12-07T04:18:01;100741.59;;;6.40
27986;BMP280;15453;53.692;10.168;2022-12-07T04:20:26;100739.50;;;6.35
27986;BMP280;15453;53.692;10.168;2022-12-07T04:22:51;100747.06;;;6.33
27986;BMP280;15453;53.692;10.168;2022-12-07T04:25:17;100743.72;;;6.31
27986;BMP280;15453;53.692;10.168;2022-12-07T04:27:42;100744.56;;;6.32
27986;BMP280;15453;53.692;10.168;2022-12-07T04:30:08;100741.25;;;6.30
27986;BMP280;15453;53.692;10.168;2022-12-07T04:32:33;100754.59;;;6.31
27986;BMP280;15453;53.692;10.168;2022-12-07T04:34:58;100754.59;;;6.31
27986;BMP280;15453;53.692;10.168;2022-12-07T04:37:24;100745.84;;;6.29
27986;BMP280;15453;53.692;10.168;2022-12-07T04:39:49;100745.00;;;6.28
27986;BMP280;15453;53.692;10.168;2022-12-07T04:42:14;100746.28;;;6.26
27986;BMP280;15453;53.692;10.168;2022-12-07T04:44:40;100743.34;;;6.28
27986;BMP280;15453;53.692;10.168;2022-12-07T04:47:05;100750.06;;;6.25
27986;BMP280;15453;53.692;10.168;2022-12-07T04:49:30;100755.28;;;6.27
27986;BMP280;15453;53.692;10.168;2022-12-07T04:51:56;100756.34;;;6.26
27986;BMP280;15453;53.692;10.168;2022-12-07T04:54:21;100755.13;;;6.22
27986;BMP280;15453;53.692;10.168;2022-12-07T04:56:46;100752.41;;;6.22
27986;BMP280;15453;53.692;10.168;2022-12-07T04:59:13;100752.41;;;6.22
27986;BMP280;15453;53.692;10.168;2022-12-07T05:01:39;100747.81;;;6.15
27986;BMP280;15453;53.692;10.168;2022-12-07T05:04:04;100739.06;;;6.13
27986;BMP280;15453;53.692;10.168;2022-12-07T05:06:30;100747.44;;;6.12
27986;BMP280;15453;53.692;10.168;2022-12-07T05:08:55;100761.03;;;6.12
27986;BMP280;15453;53.692;10.168;2022-12-07T05:11:20;100749.31;;;6.11
27986;BMP280;15453;53.692;10.168;2022-12-07T05:14:07;100749.78;;;6.08
27986;BMP280;15453;53.692;10.168;2022-12-07T05:16:33;100749.78;;;6.08
27986;BMP280;15453;53.692;10.168;2022-12-07T05:18:58;100746.44;;;6.06
27986;BMP280;15453;53.692;10.168;2022-12-07T05:21:23;100746.44;;;6.06
27986;BMP280;15453;53.692;10.168;2022-12-07T05:23:49;100744.41;;;6.02
27986;BMP280;15453;53.692;10.168;2022-12-07T05:26:14;100744.41;;;6.02
27986;BMP280;15453;53.692;10.168;2022-12-07T05:28:40;100744.41;;;6.02
27986;BMP280;15453;53.692;10.168;2022-12-07T05:31:05;100737.47;;;5.99
27986;BMP280;15453;53.692;10.168;2022-12-07T05:33:30;100743.16;;;5.98
27986;BMP280;15453;53.692;10.168;2022-12-07T05:35:55;100741.88;;;6.00
27986;BMP280;15453;53.692;10.168;2022-12-07T05:38:21;100741.88;;;6.00
27986;BMP280;15453;53.692;10.168;2022-12-07T05:40:46;100743.97;;;5.98
27986;BMP280;15453;53.692;10.168;2022-12-07T05:43:11;100745.63;;;5.99
27986;BMP280;15453;53.692;10.168;2022-12-07T05:45:36;100745.63;;;5.99
27986;BMP280;15453;53.692;10.168;2022-12-07T05:48:02;100746.69;;;5.98
27986;BMP280;15453;53.692;10.168;2022-12-07T05:50:27;100746.69;;;5.98
27986;BMP280;15453;53.692;10.168;2022-12-07T05:52:53;100737.94;;;5.96
27986;BMP280;15453;53.692;10.168;2022-12-07T05:55:18;100741.47;;;5.97
27986;BMP280;15453;53.692;10.168;2022-12-07T05:57:43;100741.47;;;5.97
27986;BMP280;15453;53.692;10.168;2022-12-07T06:00:29;100738.97;;;5.95
27986;BMP280;15453;53.692;10.168;2022-12-07T06:02:54;100738.97;;;5.95
27986;BMP280;15453;53.692;10.168;2022-12-07T06:05:19;100734.22;;;5.91
27986;BMP280;15453;53.692;10.168;2022-12-07T06:07:44;100731.50;;;5.91
27986;BMP280;15453;53.692;10.168;2022-12-07T06:10:10;100742.38;;;5.91
27986;BMP280;15453;53.692;10.168;2022-12-07T06:12:35;100742.38;;;5.91
27986;BMP280;15453;53.692;10.168;2022-12-07T06:15:00;100726.50;;;5.88
27986;BMP280;15453;53.692;10.168;2022-12-07T06:17:26;100722.31;;;5.85
27986;BMP280;15453;53.692;10.168;2022-12-07T06:19:51;100732.13;;;5.86
27986;BMP280;15453;53.692;10.168;2022-12-07T06:22:17;100732.13;;;5.86
27986;BMP280;15453;53.692;10.168;2022-12-07T06:24:42;100727.75;;;5.85
27986;BMP280;15453;53.692;10.168;2022-12-07T06:27:08;100720.03;;;5.82
27986;BMP280;15453;53.692;10.168;2022-12-07T06:29:34;100720.03;;;5.82
27986;BMP280;15453;53.692;10.168;2022-12-07T06:31:59;100726.53;;;5.81
27986;BMP280;15453;53.692;10.168;2022-12-07T06:34:26;100726.53;;;5.81
27986;BMP280;15453;53.692;10.168;2022-12-07T06:36:52;100720.69;;;5.78
27986;BMP280;15453;53.692;10.168;2022-12-07T06:39:21;100726.13;;;5.78
27986;BMP280;15453;53.692;10.168;2022-12-07T06:41:47;100720.69;;;5.78
27986;BMP280;15453;53.692;10.168;2022-12-07T06:44:12;100725.28;;;5.77
27986;BMP280;15453;53.692;10.168;2022-12-07T06:46:37;100725.28;;;5.77
27986;BMP280;15453;53.692;10.168;2022-12-07T06:49:03;100721.31;;;5.73
27986;BMP280;15453;53.692;10.168;2022-12-07T06:51:29;100722.38;;;5.72
27986;BMP280;15453;53.692;10.168;2022-12-07T06:53:55;100726.38;;;5.70
27986;BMP280;15453;53.692;10.168;2022-12-07T06:56:20;100735.13;;;5.72
27986;BMP280;15453;53.692;10.168;2022-12-07T06:58:45;100734.31;;;5.71
27986;BMP280;15453;53.692;10.168;2022-12-07T07:01:12;100734.31;;;5.71
27986;BMP280;15453;53.692;10.168;2022-12-07T07:03:38;100726.38;;;5.70
27986;BMP280;15453;53.692;10.168;2022-12-07T07:06:04;100730.97;;;5.69
27986;BMP280;15453;53.692;10.168;2022-12-07T07:08:29;100731.59;;;5.71
27986;BMP280;15453;53.692;10.168;2022-12-07T07:10:55;100731.59;;;5.71
27986;BMP280;15453;53.692;10.168;2022-12-07T07:13:21;100739.13;;;5.69
27986;BMP280;15453;53.692;10.168;2022-12-07T07:15:46;100732.03;;;5.68
27986;BMP280;15453;53.692;10.168;2022-12-07T07:18:11;100735.13;;;5.72
27986;BMP280;15453;53.692;10.168;2022-12-07T07:20:37;100735.13;;;5.72
27986;BMP280;15453;53.692;10.168;2022-12-07T07:23:02;100731.59;;;5.71
27986;BMP280;15453;53.692;10.168;2022-12-07T07:25:27;100731.59;;;5.71
27986;BMP280;15453;53.692;10.168;2022-12-07T07:27:52;100740.56;;;5.72
27986;BMP280;15453;53.692;10.168;2022-12-07T07:30:18;100742.25;;;5.73
27986;BMP280;15453;53.692;10.168;2022-12-07T07:32:43;100742.25;;;5.73
27986;BMP280;15453;53.692;10.168;2022-12-07T07:35:08;100748.88;;;5.77
27986;BMP280;15453;53.692;10.168;2022-12-07T07:37:33;100745.34;;;5.76
27986;BMP280;15453;53.692;10.168;2022-12-07T07:39:59;100745.34;;;5.76
27986;BMP280;15453;53.692;10.168;2022-12-07T07:42:24;100748.66;;;5.78
27986;BMP280;15453;53.692;10.168;2022-12-07T07:44:49;100756.81;;;5.78
27986;BMP280;15453;53.692;10.168;2022-12-07T07:47:14;100756.81;;;5.78
27986;BMP280;15453;53.692;10.168;2022-12-07T07:49:40;100755.78;;;5.79
27986;BMP280;15453;53.692;10.168;2022-12-07T07:52:05;100751.16;;;5.80
27986;BMP280;15453;53.692;10.168;2022-12-07T07:54:31;100758.09;;;5.82
27986;BMP280;15453;53.692;10.168;2022-12-07T07:56:56;100758.09;;;5.82
27986;BMP280;15453;53.692;10.168;2022-12-07T07:59:21;100760.59;;;5.84
27986;BMP280;15453;53.692;10.168;2022-12-07T08:01:47;100761.44;;;5.84
27986;BMP280;15453;53.692;10.168;2022-12-07T08:04:12;100760.38;;;5.85
27986;BMP280;15453;53.692;10.168;2022-12-07T08:06:38;100760.38;;;5.85
27986;BMP280;15453;53.692;10.168;2022-12-07T08:09:03;100760.75;;;5.89
27986;BMP280;15453;53.692;10.168;2022-12-07T08:11:30;100768.69;;;5.90
27986;BMP280;15453;53.692;10.168;2022-12-07T09:04:32;100762.09;;;6.11
27986;BMP280;15453;53.692;10.168;2022-12-07T09:06:57;100761.63;;;6.14
27986;BMP280;15453;53.692;10.168;2022-12-07T09:09:23;100767.50;;;6.18
27986;BMP280;15453;53.692;10.168;2022-12-07T09:11:48;100767.50;;;6.18
27986;BMP280;15453;53.692;10.168;2022-12-07T09:14:14;100756.84;;;6.16
27986;BMP280;15453;53.692;10.168;2022-12-07T09:16:39;100762.66;;;6.19
27986;BMP280;15453;53.692;10.168;2022-12-07T09:19:05;100761.38;;;6.22
27986;BMP280;15453;53.692;10.168;2022-12-07T09:21:30;100759.22;;;6.31
27986;BMP280;15453;53.692;10.168;2022-12-07T09:23:55;100770.72;;;6.32
27986;BMP280;15453;53.692;10.168;2022-12-07T09:26:21;100758.56;;;6.35
27986;BMP280;15453;53.692;10.168;2022-12-07T09:28:46;100755.63;;;6.37
27986;BMP280;15453;53.692;10.168;2022-12-07T09:31:11;100755.63;;;6.37
27986;BMP280;15453;53.692;10.168;2022-12-07T09:33:37;100759.41;;;6.36
27986;BMP280;15453;53.692;10.168;2022-12-07T09:36:03;100760.84;;;6.38
27986;BMP280;15453;53.692;10.168;2022-12-07T09:38:28;100765.16;;;6.46
27986;BMP280;15453;53.692;10.168;2022-12-07T09:40:55;100765.16;;;6.46
27986;BMP280;15453;53.692;10.168;2022-12-07T09:43:25;100762.44;;;6.46
27986;BMP280;15453;53.692;10.168;2022-12-07T09:45:52;100761.19;;;6.48
27986;BMP280;15453;53.692;10.168;2022-12-07T09:48:26;100759.22;;;6.55
27986;BMP280;15453;53.692;10.168;2022-12-07T09:50:55;100759.22;;;6.55
27986;BMP280;15453;53.692;10.168;2022-12-07T09:53:30;100755.69;;;6.55
27986;BMP280;15453;53.692;10.168;2022-12-07T09:55:58;100760.59;;;6.64
27986;BMP280;15453;53.692;10.168;2022-12-07T09:58:25;100760.59;;;6.64
27986;BMP280;15453;53.692;10.168;2022-12-07T10:01:00;100754.34;;;6.64
27986;BMP280;15453;53.692;10.168;2022-12-07T10:03:27;100756.84;;;6.65
27986;BMP280;15453;53.692;10.168;2022-12-07T10:05:53;100749.63;;;6.77
27986;BMP280;15453;53.692;10.168;2022-12-07T10:08:18;100750.22;;;6.79
27986;BMP280;15453;53.692;10.168;2022-12-07T10:10:45;100750.22;;;6.79
27986;BMP280;15453;53.692;10.168;2022-12-07T10:13:13;100746.66;;;6.79
27986;BMP280;15453;53.692;10.168;2022-12-07T10:15:48;100752.03;;;6.85
27986;BMP280;15453;53.692;10.168;2022-12-07T10:18:41;100752.03;;;6.85
27986;BMP280;15453;53.692;10.168;2022-12-07T10:21:15;100740.53;;;6.83
27986;BMP280;15453;53.692;10.168;2022-12-07T10:24:03;100737.16;;;6.88
27986;BMP280;15453;53.692;10.168;2022-12-07T10:26:33;100744.03;;;6.90
27986;BMP280;15453;53.692;10.168;2022-12-07T10:28:59;100739.81;;;6.94
27986;BMP280;15453;53.692;10.168;2022-12-07T10:31:26;100739.50;;;7.02
27986;BMP280;15453;53.692;10.168;2022-12-07T10:33:56;100739.50;;;7.02
27986;BMP280;15453;53.692;10.168;2022-12-07T10:36:26;100737.59;;;7.03
27986;BMP280;15453;53.692;10.168;2022-12-07T10:39:11;100724.63;;;7.05
27986;BMP280;15453;53.692;10.168;2022-12-07T10:42:01;100748.19;;;7.11
27986;BMP280;15453;53.692;10.168;2022-12-07T10:44:31;100741.47;;;7.13
27986;BMP280;15453;53.692;10.168;2022-12-07T10:50:10;100740.31;;;7.03
27986;BMP280;15453;53.692;10.168;2022-12-07T10:55:34;100736.63;;;7.15
27986;BMP280;15453;53.692;10.168;2022-12-07T11:01:34;100741.47;;;7.13
27986;BMP280;15453;53.692;10.168;2022-12-07T11:10:00;100720.66;;;7.19
27986;BMP280;15453;53.692;10.168;2022-12-07T11:15:15;100716.66;;;7.21
27986;BMP280;15453;53.692;10.168;2022-12-07T11:20:54;100717.28;;;7.23
27986;BMP280;15453;53.692;10.168;2022-12-07T11:23:31;100701.97;;;7.22
27986;BMP280;15453;53.692;10.168;2022-12-07T11:32:34;100703.72;;;7.35
27986;BMP280;15453;53.692;10.168;2022-12-07T11:35:11;100703.72;;;7.35
27986;BMP280;15453;53.692;10.168;2022-12-07T11:37:40;100706.34;;;7.41
27986;BMP280;15453;53.692;10.168;2022-12-07T11:42:59;100697.56;;;7.39
27986;BMP280;15453;53.692;10.168;2022-12-07T11:45:29;100694.38;;;7.42
27986;BMP280;15453;53.692;10.168;2022-12-07T11:48:06;100687.84;;;7.43
27986;BMP280;15453;53.692;10.168;2022-12-07T11:50:42;100691.19;;;7.45
27986;BMP280;15453;53.692;10.168;2022-12-07T11:55:53;100694.41;;;7.54
27986;BMP280;15453;53.692;10.168;2022-12-07T12:01:24;100691.00;;;7.58
27986;BMP280;15453;53.692;10.168;2022-12-07T12:03:55;100691.16;;;7.63
27986;BMP280;15453;53.692;10.168;2022-12-07T12:06:22;100691.16;;;7.63
27986;BMP280;15453;53.692;10.168;2022-12-07T12:08:54;100689.59;;;7.56
27986;BMP280;15453;53.692;10.168;2022-12-07T12:11:44;100682.97;;;7.63
27986;BMP280;15453;53.692;10.168;2022-12-07T12:14:21;100680.63;;;7.67
27986;BMP280;15453;53.692;10.168;2022-12-07T12:20:04;100688.56;;;7.68
27986;BMP280;15453;53.692;10.168;2022-12-07T12:23:13;100689.84;;;7.66
27986;BMP280;15453;53.692;10.168;2022-12-07T12:25:28;100689.84;;;7.66
27986;BMP280;15453;53.692;10.168;2022-12-07T12:27:57;100692.72;;;7.71
27986;BMP280;15453;53.692;10.168;2022-12-07T12:30:36;100693.31;;;7.73
27986;BMP280;15453;53.692;10.168;2022-12-07T12:33:04;100692.03;;;7.75
27986;BMP280;15453;53.692;10.168;2022-12-07T12:35:33;100692.03;;;7.75
27986;BMP280;15453;53.692;10.168;2022-12-07T12:38:31;100692.25;;;7.74
27986;BMP280;15453;53.692;10.168;2022-12-07T12:40:58;100687.63;;;7.74
27986;BMP280;15453;53.692;10.168;2022-12-07T12:49:13;100691.19;;;7.75
27986;BMP280;15453;53.692;10.168;2022-12-07T12:51:41;100691.19;;;7.75
27986;BMP280;15453;53.692;10.168;2022-12-07T12:54:24;100688.31;;;7.70
27986;BMP280;15453;53.692;10.168;2022-12-07T13:02:21;100704.56;;;7.65
27986;BMP280;15453;53.692;10.168;2022-12-07T13:04:51;100704.56;;;7.65
27986;BMP280;15453;53.692;10.168;2022-12-07T13:13:02;100695.25;;;7.54
27986;BMP280;15453;53.692;10.168;2022-12-07T13:17:59;100702.97;;;7.57
27986;BMP280;15453;53.692;10.168;2022-12-07T13:20:48;100702.97;;;7.57
27986;BMP280;15453;53.692;10.168;2022-12-07T13:23:16;100702.50;;;7.60
27986;BMP280;15453;53.692;10.168;2022-12-07T13:28:39;100693.13;;;7.56
27986;BMP280;15453;53.692;10.168;2022-12-07T13:33:59;100691.84;;;7.59
27986;BMP280;15453;53.692;10.168;2022-12-07T13:36:27;100689.13;;;7.59
27986;BMP280;15453;53.692;10.168;2022-12-07T13:38:56;100697.53;;;7.57
27986;BMP280;15453;53.692;10.168;2022-12-07T13:41:26;100689.59;;;7.56
27986;BMP280;15453;53.692;10.168;2022-12-07T13:46:31;100700.72;;;7.54
27986;BMP280;15453;53.692;10.168;2022-12-07T13:48:58;100702.47;;;7.49
27986;BMP280;15453;53.692;10.168;2022-12-07T13:51:26;100692.63;;;7.48
27986;BMP280;15453;53.692;10.168;2022-12-07T13:53:54;100696.66;;;7.45
27986;BMP280;15453;53.692;10.168;2022-12-07T13:56:32;100705.88;;;7.44
27986;BMP280;15453;53.692;10.168;2022-12-07T13:58:58;100700.91;;;7.41
27986;BMP280;15453;53.692;10.168;2022-12-07T14:01:24;100700.91;;;7.41
27986;BMP280;15453;53.692;10.168;2022-12-07T14:03:50;100700.06;;;7.41
27986;BMP280;15453;53.692;10.168;2022-12-07T14:06:26;100703.63;;;7.41
27986;BMP280;15453;53.692;10.168;2022-12-07T14:09:27;100694.25;;;7.37
27986;BMP280;15453;53.692;10.168;2022-12-07T14:11:55;100694.69;;;7.34
27986;BMP280;15453;53.692;10.168;2022-12-07T14:14:24;100700.75;;;7.36
27986;BMP280;15453;53.692;10.168;2022-12-07T14:17:15;100706.44;;;7.35
27986;BMP280;15453;53.692;10.168;2022-12-07T14:22:33;100693.47;;;7.30
27986;BMP280;15453;53.692;10.168;2022-12-07T14:25:16;100699.16;;;7.29
27986;BMP280;15453;53.692;10.168;2022-12-07T14:27:49;100692.28;;;7.26
27986;BMP280;15453;53.692;10.168;2022-12-07T14:30:15;100698.88;;;7.19
27986;BMP280;15453;53.692;10.168;2022-12-07T14:32:41;100701.75;;;7.24
27986;BMP280;15453;53.692;10.168;2022-12-07T14:35:12;100701.38;;;7.20
27986;BMP280;15453;53.692;10.168;2022-12-07T14:37:39;100706.47;;;7.17
27986;BMP280;15453;53.692;10.168;2022-12-07T14:40:05;100705.00;;;7.14
27986;BMP280;15453;53.692;10.168;2022-12-07T14:42:31;100702.53;;;7.13
27986;BMP280;15453;53.692;10.168;2022-12-07T14:44:57;100702.53;;;7.13
27986;BMP280;15453;53.692;10.168;2022-12-07T14:47:24;100707.56;;;7.09
27986;BMP280;15453;53.692;10.168;2022-12-07T14:49:50;100705.91;;;7.08
27986;BMP280;15453;53.692;10.168;2022-12-07T14:52:46;100700.91;;;7.05
27986;BMP280;15453;53.692;10.168;2022-12-07T14:55:31;100701.63;;;7.01
27986;BMP280;15453;53.692;10.168;2022-12-07T14:57:58;100705.38;;;7.00
27986;BMP280;15453;53.692;10.168;2022-12-07T15:00:25;100705.38;;;7.00
27986;BMP280;15453;53.692;10.168;2022-12-07T15:02:51;100702.06;;;6.98
27986;BMP280;15453;53.692;10.168;2022-12-07T15:05:17;100705.00;;;6.96
27986;BMP280;15453;53.692;10.168;2022-12-07T15:07:44;100703.56;;;6.94
27986;BMP280;15453;53.692;10.168;2022-12-07T15:10:15;100708.44;;;6.92
27986;BMP280;15453;53.692;10.168;2022-12-07T15:12:42;100710.53;;;6.90
27986;BMP280;15453;53.692;10.168;2022-12-07T15:15:08;100705.31;;;6.88
27986;BMP280;15453;53.692;10.168;2022-12-07T15:17:33;100702.22;;;6.85
27986;BMP280;15453;53.692;10.168;2022-12-07T15:19:59;100702.22;;;6.85
27986;BMP280;15453;53.692;10.168;2022-12-07T15:22:24;100693.06;;;6.79
27986;BMP280;15453;53.692;10.168;2022-12-07T15:24:49;100696.00;;;6.78
27986;BMP280;15453;53.692;10.168;2022-12-07T15:27:14;100692.06;;;6.74
27986;BMP280;15453;53.692;10.168;2022-12-07T15:29:39;100686.25;;;6.70
27986;BMP280;15453;53.692;10.168;2022-12-07T15:32:05;100693.78;;;6.68
27986;BMP280;15453;53.692;10.168;2022-12-07T15:34:30;100694.25;;;6.65
27986;BMP280;15453;53.692;10.168;2022-12-07T15:36:56;100694.25;;;6.65
27986;BMP280;15453;53.692;10.168;2022-12-07T15:39:22;100691.34;;;6.60
27986;BMP280;15453;53.692;10.168;2022-12-07T15:41:47;100691.34;;;6.60
27986;BMP280;15453;53.692;10.168;2022-12-07T15:44:12;100696.88;;;6.54
27986;BMP280;15453;53.692;10.168;2022-12-07T15:46:57;100696.88;;;6.54
27986;BMP280;15453;53.692;10.168;2022-12-07T15:49:22;100697.78;;;6.48
27986;BMP280;15453;53.692;10.168;2022-12-07T15:51:47;100691.13;;;6.44
27986;BMP280;15453;53.692;10.168;2022-12-07T15:54:24;100691.56;;;6.41
27986;BMP280;15453;53.692;10.168;2022-12-07T15:56:50;100690.97;;;6.39
27986;BMP280;15453;53.692;10.168;2022-12-07T15:59:16;100693.06;;;6.37
27986;BMP280;15453;53.692;10.168;2022-12-07T16:01:41;100693.06;;;6.37
27986;BMP280;15453;53.692;10.168;2022-12-07T16:04:07;100688.53;;;6.31
27986;BMP280;15453;53.692;10.168;2022-12-07T16:06:32;100689.19;;;6.26
27986;BMP280;15453;53.692;10.168;2022-12-07T16:08:57;100687.13;;;6.22
27986;BMP280;15453;53.692;10.168;2022-12-07T16:11:23;100693.00;;;6.18
27986;BMP280;15453;53.692;10.168;2022-12-07T16:13:49;100692.84;;;6.13
27986;BMP280;15453;53.692;10.168;2022-12-07T16:16:16;100690.78;;;6.09
27986;BMP280;15453;53.692;10.168;2022-12-07T16:18:43;100689.56;;;6.05
27986;BMP280;15453;53.692;10.168;2022-12-07T16:21:08;100689.41;;;6.00
27986;BMP280;15453;53.692;10.168;2022-12-07T16:23:33;100685.69;;;5.94
27986;BMP280;15453;53.692;10.168;2022-12-07T16:26:10;100683.84;;;5.88
27986;BMP280;15453;53.692;10.168;2022-12-07T16:28:36;100694.31;;;5.85
27986;BMP280;15453;53.692;10.168;2022-12-07T16:31:16;100694.31;;;5.85
27986;BMP280;15453;53.692;10.168;2022-12-07T16:33:43;100680.94;;;5.77
27986;BMP280;15453;53.692;10.168;2022-12-07T16:36:10;100676.19;;;5.72
27986;BMP280;15453;53.692;10.168;2022-12-07T16:38:36;100685.84;;;5.68
27986;BMP280;15453;53.692;10.168;2022-12-07T16:41:03;100685.44;;;5.65
27986;BMP280;15453;53.692;10.168;2022-12-07T16:43:29;100684.00;;;5.62
27986;BMP280;15453;53.692;10.168;2022-12-07T16:45:54;100693.63;;;5.58
27986;BMP280;15453;53.692;10.168;2022-12-07T16:48:19;100685.91;;;5.55
27986;BMP280;15453;53.692;10.168;2022-12-07T16:50:45;100689.91;;;5.53
27986;BMP280;15453;53.692;10.168;2022-12-07T16:53:12;100692.84;;;5.51
27986;BMP280;15453;53.692;10.168;2022-12-07T16:55:42;100692.84;;;5.51
27986;BMP280;15453;53.692;10.168;2022-12-07T16:58:09;100694.31;;;5.47
27986;BMP280;15453;53.692;10.168;2022-12-07T17:00:35;100693.47;;;5.47
27986;BMP280;15453;53.692;10.168;2022-12-07T17:03:02;100692.88;;;5.45
27986;BMP280;15453;53.692;10.168;2022-12-07T17:05:27;100688.69;;;5.49